sensor_id;sensor_type;location;lat;lon;timestamp;pressure;altitude;pressure_sealevel;temperature;humidity
37238;BME280;23129;49.662;8.448;2023-11-19T00:00:28;100595.13;;;8.39;100.00
37238;BME280;23129;49.662;8.448;2023-11-19T00:02:58;100582.91;;;8.40;100.00
37238;BME280;23129;49.662;8.448;2023-11-19T00:05:27;100579.44;;;8.41;100.00
37238;BME280;23129;49.662;8.448;2023-11-19T00:07:56;100574.16;;;8.42;100.00
37238;BME280;23129;49.662;8.448;2023-11-19T00:10:24;100572.41;;;8.43;100.00
37238;BME280;23129;49.662;8.448;2023-11-19T00:12:53;100565.41;;;8.43;100.00
37238;BME280;23129;49.662;8.448;2023-11-19T00:15:22;100561.94;;;8.44;100.00
37238;BME280;23129;49.662;8.448;2023-11-19T00:17:51;100556.69;;;8.46;100.00
37238;BME280;23129;49.662;8.448;2023-11-19T00:20:21;100550.59;;;8.45;100.00
37238;BME280;23129;49.662;8.448;2023-11-19T00:22:50;100545.38;;;8.45;100.00
37238;BME280;23129;49.662;8.448;2023-11-19T00:25:20;100561.03;;;8.47;100.00
37238;BME280;23129;49.662;8.448;2023-11-19T00:27:50;100557.53;;;8.48;100.00
37238;BME280;23129;49.662;8.448;2023-11-19T00:30:21;100567.06;;;8.49;100.00
37238;BME280;23129;49.662;8.448;2023-11-19T00:32:49;100568.81;;;8.50;100.00
37238;BME280;23129;49.662;8.448;2023-11-19T00:35:18;100567.91;;;8.51;100.00
37238;BME280;23129;49.662;8.448;2023-11-19T00:37:48;100564.44;;;8.51;100.00
37238;BME280;23129;49.662;8.448;2023-11-19T00:40:17;100574.88;;;8.52;100.00
37238;BME280;23129;49.662;8.448;2023-11-19T00:42:49;100580.94;;;8.54;100.00
37238;BME280;23129;49.662;8.448;2023-11-19T00:45:18;100570.47;;;8.54;100.00
37238;BME280;23129;49.662;8.448;2023-11-19T00:47:46;100555.66;;;8.55;100.00
37238;BME280;23129;49.662;8.448;2023-11-19T00:50:15;100551.28;;;8.55;100.00
37238;BME280;23129;49.662;8.448;2023-11-19T00:52:45;100547.78;;;8.56;100.00
37238;BME280;23129;49.662;8.448;2023-11-19T00:55:16;100559.13;;;8.57;100.00
37238;BME280;23129;49.662;8.448;2023-11-19T00:57:45;100561.69;;;8.58;100.00
37238;BME280;23129;49.662;8.448;2023-11-19T01:00:14;100551.22;;;8.58;100.00
37238;BME280;23129;49.662;8.448;2023-11-19T01:02:47;100551.16;;;8.61;100.00
37238;BME280;23129;49.662;8.448;2023-11-19T01:05:19;100547.69;;;8.62;100.00
37238;BME280;23129;49.662;8.448;2023-11-19T01:07:50;100546.78;;;8.63;100.00
37238;BME280;23129;49.662;8.448;2023-11-19T01:10:23;100535.44;;;8.64;100.00
37238;BME280;23129;49.662;8.448;2023-11-19T01:12:53;100541.53;;;8.65;100.00
37238;BME280;23129;49.662;8.448;2023-11-19T01:15:22;100545.84;;;8.67;100.00
37238;BME280;23129;49.662;8.448;2023-11-19T01:17:51;100537.13;;;8.68;100.00
37238;BME280;23129;49.662;8.448;2023-11-19T01:20:20;100549.28;;;8.69;100.00
37238;BME280;23129;49.662;8.448;2023-11-19T01:22:49;100563.22;;;8.72;100.00
37238;BME280;23129;49.662;8.448;2023-11-19T01:25:18;100564.91;;;8.73;100.00
37238;BME280;23129;49.662;8.448;2023-11-19T01:27:49;100569.28;;;8.72;100.00
37238;BME280;23129;49.662;8.448;2023-11-19T01:30:18;100557.91;;;8.75;100.00
37238;BME280;23129;49.662;8.448;2023-11-19T01:32:49;100557.91;;;8.75;100.00
37238;BME280;23129;49.662;8.448;2023-11-19T01:35:18;100559.63;;;8.77;100.00
37238;BME280;23129;49.662;8.448;2023-11-19T01:37:46;100545.69;;;8.77;100.00
37238;BME280;23129;49.662;8.448;2023-11-19T01:40:19;100550.00;;;8.78;100.00
37238;BME280;23129;49.662;8.448;2023-11-19T01:42:49;100534.31;;;8.78;100.00
37238;BME280;23129;49.662;8.448;2023-11-19T01:45:26;100530.81;;;8.79;100.00
37238;BME280;23129;49.662;8.448;2023-11-19T01:47:56;100519.47;;;8.80;100.00
37238;BME280;23129;49.662;8.448;2023-11-19T01:50:26;100543.81;;;8.82;100.00
37238;BME280;23129;49.662;8.448;2023-11-19T01:52:55;100531.66;;;8.81;100.00
37238;BME280;23129;49.662;8.448;2023-11-19T01:55:26;100522.03;;;8.83;100.00
37238;BME280;23129;49.662;8.448;2023-11-19T01:58:00;100511.56;;;8.83;100.00
37238;BME280;23129;49.662;8.448;2023-11-19T02:00:31;100494.97;;;8.84;100.00
37238;BME280;23129;49.662;8.448;2023-11-19T02:03:01;100497.53;;;8.85;100.00
37238;BME280;23129;49.662;8.448;2023-11-19T02:05:31;100483.59;;;8.85;100.00
37238;BME280;23129;49.662;8.448;2023-11-19T02:08:01;100487.97;;;8.86;100.00
37238;BME280;23129;49.662;8.448;2023-11-19T02:10:30;100470.47;;;8.88;100.00
37238;BME280;23129;49.662;8.448;2023-11-19T02:13:02;100465.22;;;8.88;100.00
37238;BME280;23129;49.662;8.448;2023-11-19T02:15:33;100457.38;;;8.89;100.00
37238;BME280;23129;49.662;8.448;2023-11-19T02:18:19;100460.88;;;8.88;100.00
37238;BME280;23129;49.662;8.448;2023-11-19T02:20:49;100466.91;;;8.92;100.00
37238;BME280;23129;49.662;8.448;2023-11-19T02:23:20;100465.09;;;8.94;100.00
37238;BME280;23129;49.662;8.448;2023-11-19T02:26:00;100472.94;;;8.96;100.00
37238;BME280;23129;49.662;8.448;2023-11-19T02:28:32;100468.56;;;8.96;100.00
37238;BME280;23129;49.662;8.448;2023-11-19T02:31:01;100463.25;;;8.99;100.00
37238;BME280;23129;49.662;8.448;2023-11-19T02:33:32;100469.34;;;9.00;100.00
37238;BME280;23129;49.662;8.448;2023-11-19T02:36:02;100471.03;;;9.04;100.00
37238;BME280;23129;49.662;8.448;2023-11-19T02:38:31;100458.81;;;9.04;100.00
37238;BME280;23129;49.662;8.448;2023-11-19T02:41:02;100452.66;;;9.07;100.00
37238;BME280;23129;49.662;8.448;2023-11-19T02:43:34;100447.38;;;9.08;100.00
37238;BME280;23129;49.662;8.448;2023-11-19T02:46:04;100442.13;;;9.08;100.00
37238;BME280;23129;49.662;8.448;2023-11-19T02:48:37;100447.31;;;9.11;100.00
37238;BME280;23129;49.662;8.448;2023-11-19T02:51:07;100436.84;;;9.11;100.00
37238;BME280;23129;49.662;8.448;2023-11-19T02:53:37;100428.13;;;9.12;100.00
37238;BME280;23129;49.662;8.448;2023-11-19T02:56:08;100426.31;;;9.14;100.00
37238;BME280;23129;49.662;8.448;2023-11-19T02:58:48;100423.66;;;9.16;100.00
37238;BME280;23129;49.662;8.448;2023-11-19T03:01:22;100417.50;;;9.19;100.00
37238;BME280;23129;49.662;8.448;2023-11-19T03:03:58;100410.47;;;9.21;100.00
37238;BME280;23129;49.662;8.448;2023-11-19T03:06:30;100408.69;;;9.23;100.00
37238;BME280;23129;49.662;8.448;2023-11-19T03:08:59;100417.38;;;9.25;100.00
37238;BME280;23129;49.662;8.448;2023-11-19T03:11:34;100422.53;;;9.28;100.00
37238;BME280;23129;49.662;8.448;2023-11-19T03:14:04;100434.63;;;9.32;100.00
37238;BME280;23129;49.662;8.448;2023-11-19T03:16:33;100433.72;;;9.34;100.00
37238;BME280;23129;49.662;8.448;2023-11-19T03:19:02;100433.63;;;9.37;100.00
37238;BME280;23129;49.662;8.448;2023-11-19T03:21:32;100431.81;;;9.41;100.00
37238;BME280;23129;49.662;8.448;2023-11-19T03:24:01;100439.59;;;9.44;100.00
37238;BME280;23129;49.662;8.448;2023-11-19T03:26:30;100424.66;;;9.48;100.00
37238;BME280;23129;49.662;8.448;2023-11-19T03:28:58;100423.72;;;9.52;100.00
37238;BME280;23129;49.662;8.448;2023-11-19T03:31:29;100419.28;;;9.54;100.00
37238;BME280;23129;49.662;8.448;2023-11-19T03:33:57;100414.94;;;9.54;100.00
37238;BME280;23129;49.662;8.448;2023-11-19T03:36:32;100417.50;;;9.56;100.00
37238;BME280;23129;49.662;8.448;2023-11-19T03:39:01;100410.47;;;9.58;100.00
37238;BME280;23129;49.662;8.448;2023-11-19T03:41:31;100398.22;;;9.58;100.00
37238;BME280;23129;49.662;8.448;2023-11-19T03:44:02;100410.41;;;9.61;100.00
37238;BME280;23129;49.662;8.448;2023-11-19T03:46:32;100412.97;;;9.63;100.00
37238;BME280;23129;49.662;8.448;2023-11-19T03:49:02;100409.41;;;9.65;100.00
37238;BME280;23129;49.662;8.448;2023-11-19T03:51:33;100411.94;;;9.68;100.00
37238;BME280;23129;49.662;8.448;2023-11-19T03:54:03;100409.31;;;9.70;100.00
37238;BME280;23129;49.662;8.448;2023-11-19T03:56:31;100402.25;;;9.72;100.00
37238;BME280;23129;49.662;8.448;2023-11-19T03:59:00;100403.13;;;9.72;100.00
37238;BME280;23129;49.662;8.448;2023-11-19T04:01:29;100395.22;;;9.74;100.00
37238;BME280;23129;49.662;8.448;2023-11-19T04:03:59;100396.94;;;9.75;100.00
37238;BME280;23129;49.662;8.448;2023-11-19T04:06:28;100393.44;;;9.76;100.00
37238;BME280;23129;49.662;8.448;2023-11-19T04:08:57;100394.28;;;9.76;100.00
37238;BME280;23129;49.662;8.448;2023-11-19T04:11:25;100396.84;;;9.78;100.00
37238;BME280;23129;49.662;8.448;2023-11-19T04:13:54;100394.28;;;9.76;100.00
37238;BME280;23129;49.662;8.448;2023-11-19T04:16:26;100402.09;;;9.78;100.00
37238;BME280;23129;49.662;8.448;2023-11-19T04:18:58;100395.94;;;9.80;100.00
37238;BME280;23129;49.662;8.448;2023-11-19T04:21:27;100391.53;;;9.81;100.00
37238;BME280;23129;49.662;8.448;2023-11-19T04:23:55;100380.97;;;9.84;100.00
37238;BME280;23129;49.662;8.448;2023-11-19T04:26:24;100380.03;;;9.88;100.00
37238;BME280;23129;49.662;8.448;2023-11-19T04:28:52;100383.41;;;9.92;100.00
37238;BME280;23129;49.662;8.448;2023-11-19T04:31:21;100385.94;;;9.96;100.00
37238;BME280;23129;49.662;8.448;2023-11-19T04:33:53;100387.56;;;10.00;100.00
37238;BME280;23129;49.662;8.448;2023-11-19T04:36:24;100378.72;;;10.04;100.00
37238;BME280;23129;49.662;8.448;2023-11-19T04:38:52;100389.09;;;10.07;100.00
37238;BME280;23129;49.662;8.448;2023-11-19T04:41:21;100382.97;;;10.09;100.00
37238;BME280;23129;49.662;8.448;2023-11-19T04:43:50;100391.63;;;10.12;100.00
37238;BME280;23129;49.662;8.448;2023-11-19T04:46:19;100382.81;;;10.15;100.00
37238;BME280;23129;49.662;8.448;2023-11-19T04:48:48;100381.81;;;10.19;100.00
37238;BME280;23129;49.662;8.448;2023-11-19T04:51:17;100380.91;;;10.20;100.00
37238;BME280;23129;49.662;8.448;2023-11-19T04:53:47;100385.19;;;10.24;100.00
37238;BME280;23129;49.662;8.448;2023-11-19T04:56:15;100393.00;;;10.27;100.00
37238;BME280;23129;49.662;8.448;2023-11-19T04:58:47;100393.81;;;10.29;100.00
37238;BME280;23129;49.662;8.448;2023-11-19T05:01:15;100397.25;;;10.31;100.00
37238;BME280;23129;49.662;8.448;2023-11-19T05:03:45;100407.66;;;10.34;100.00
37238;BME280;23129;49.662;8.448;2023-11-19T05:06:14;100395.38;;;10.36;100.00
37238;BME280;23129;49.662;8.448;2023-11-19T05:08:44;100396.13;;;10.40;100.00
37238;BME280;23129;49.662;8.448;2023-11-19T05:11:14;100392.59;;;10.41;100.00
37238;BME280;23129;49.662;8.448;2023-11-19T05:13:45;100389.88;;;10.45;100.00
37238;BME280;23129;49.662;8.448;2023-11-19T05:16:14;100386.31;;;10.46;100.00
37238;BME280;23129;49.662;8.448;2023-11-19T05:18:43;100393.22;;;10.50;100.00
37238;BME280;23129;49.662;8.448;2023-11-19T05:21:12;100392.28;;;10.53;100.00
37238;BME280;23129;49.662;8.448;2023-11-19T05:23:41;100389.59;;;10.55;100.00
37238;BME280;23129;49.662;8.448;2023-11-19T05:26:16;100384.25;;;10.58;100.00
37238;BME280;23129;49.662;8.448;2023-11-19T05:28:46;100378.94;;;10.61;100.00
37238;BME280;23129;49.662;8.448;2023-11-19T05:31:17;100374.50;;;10.63;100.00
37238;BME280;23129;49.662;8.448;2023-11-19T05:33:46;100368.25;;;10.67;100.00
37238;BME280;23129;49.662;8.448;2023-11-19T05:36:14;100367.28;;;10.71;100.00
37238;BME280;23129;49.662;8.448;2023-11-19T05:38:43;100364.56;;;10.74;100.00
37238;BME280;23129;49.662;8.448;2023-11-19T05:41:13;100368.81;;;10.78;100.00
37238;BME280;23129;49.662;8.448;2023-11-19T05:43:42;100364.38;;;10.80;100.00
37238;BME280;23129;49.662;8.448;2023-11-19T05:46:12;100364.28;;;10.83;100.00
37238;BME280;23129;49.662;8.448;2023-11-19T05:48:43;100355.50;;;10.84;100.00
37238;BME280;23129;49.662;8.448;2023-11-19T05:51:14;100349.41;;;10.84;100.00
37238;BME280;23129;49.662;8.448;2023-11-19T05:53:43;100343.28;;;10.83;100.00
37238;BME280;23129;49.662;8.448;2023-11-19T05:56:13;100341.56;;;10.82;100.00
37238;BME280;23129;49.662;8.448;2023-11-19T05:58:43;100337.22;;;10.81;100.00
37238;BME280;23129;49.662;8.448;2023-11-19T06:01:14;100338.16;;;10.80;100.00
37238;BME280;23129;49.662;8.448;2023-11-19T06:03:42;100339.00;;;10.81;100.00
37238;BME280;23129;49.662;8.448;2023-11-19T06:06:15;100341.56;;;10.82;100.00
37238;BME280;23129;49.662;8.448;2023-11-19T06:08:43;100345.00;;;10.84;100.00
37238;BME280;23129;49.662;8.448;2023-11-19T06:11:12;100346.72;;;10.85;100.00
37238;BME280;23129;49.662;8.448;2023-11-19T06:13:45;100343.19;;;10.86;100.00
37238;BME280;23129;49.662;8.448;2023-11-19T06:16:16;100355.31;;;10.90;100.00
37238;BME280;23129;49.662;8.448;2023-11-19T06:18:45;100351.66;;;10.94;100.00
37238;BME280;23129;49.662;8.448;2023-11-19T06:21:14;100354.09;;;11.01;100.00
37238;BME280;23129;49.662;8.448;2023-11-19T06:23:43;100356.63;;;11.04;100.00
37238;BME280;23129;49.662;8.448;2023-11-19T06:26:12;100360.91;;;11.08;100.00
37238;BME280;23129;49.662;8.448;2023-11-19T06:28:41;100363.53;;;11.08;100.00
37238;BME280;23129;49.662;8.448;2023-11-19T06:31:10;100367.81;;;11.10;100.00
37238;BME280;23129;49.662;8.448;2023-11-19T06:33:40;100366.06;;;11.11;100.00
37238;BME280;23129;49.662;8.448;2023-11-19T06:36:09;100365.13;;;11.12;100.00
37238;BME280;23129;49.662;8.448;2023-11-19T06:38:38;100371.22;;;11.14;100.00
37238;BME280;23129;49.662;8.448;2023-11-19T06:41:08;100368.59;;;11.14;100.00
37238;BME280;23129;49.662;8.448;2023-11-19T06:43:37;100368.50;;;11.17;100.00
37238;BME280;23129;49.662;8.448;2023-11-19T06:46:15;100374.59;;;11.17;100.00
37238;BME280;23129;49.662;8.448;2023-11-19T06:48:45;100377.19;;;11.19;100.00
37238;BME280;23129;49.662;8.448;2023-11-19T06:51:14;100378.88;;;11.20;100.00
37238;BME280;23129;49.662;8.448;2023-11-19T06:53:43;100385.84;;;11.21;100.00
37238;BME280;23129;49.662;8.448;2023-11-19T06:56:20;100389.38;;;11.20;100.00
37238;BME280;23129;49.662;8.448;2023-11-19T06:58:49;100394.63;;;11.20;100.00
37238;BME280;23129;49.662;8.448;2023-11-19T07:01:18;100390.25;;;11.20;100.00
37238;BME280;23129;49.662;8.448;2023-11-19T07:03:49;100384.97;;;11.22;100.00
37238;BME280;23129;49.662;8.448;2023-11-19T07:06:18;100392.84;;;11.22;100.00
37238;BME280;23129;49.662;8.448;2023-11-19T07:09:02;100391.19;;;11.18;100.00
37238;BME280;23129;49.662;8.448;2023-11-19T07:11:38;100399.94;;;11.18;100.00
37238;BME280;23129;49.662;8.448;2023-11-19T07:14:07;100401.66;;;11.19;100.00
37238;BME280;23129;49.662;8.448;2023-11-19T07:16:36;100395.41;;;11.24;100.00
37238;BME280;23129;49.662;8.448;2023-11-19T07:19:07;100396.16;;;11.27;100.00
37238;BME280;23129;49.662;8.448;2023-11-19T07:21:36;100402.09;;;11.34;100.00
37238;BME280;23129;49.662;8.448;2023-11-19T07:24:07;100397.50;;;11.40;100.00
37238;BME280;23129;49.662;8.448;2023-11-19T07:26:36;100406.03;;;11.47;100.00
37238;BME280;23129;49.662;8.448;2023-11-19T07:29:05;100407.59;;;11.53;100.00
37238;BME280;23129;49.662;8.448;2023-11-19T07:31:35;100412.66;;;11.59;100.00
37238;BME280;23129;49.662;8.448;2023-11-19T07:34:04;100407.22;;;11.65;100.00
37238;BME280;23129;49.662;8.448;2023-11-19T07:36:35;100414.06;;;11.69;100.00
37238;BME280;23129;49.662;8.448;2023-11-19T07:39:04;100406.09;;;11.72;100.00
37238;BME280;23129;49.662;8.448;2023-11-19T07:41:33;100409.53;;;11.74;100.00
37238;BME280;23129;49.662;8.448;2023-11-19T07:44:05;100410.34;;;11.76;100.00
37238;BME280;23129;49.662;8.448;2023-11-19T07:46:35;100410.34;;;11.76;100.00
37238;BME280;23129;49.662;8.448;2023-11-19T07:49:03;100422.66;;;11.74;100.00
37238;BME280;23129;49.662;8.448;2023-11-19T07:51:34;100427.00;;;11.75;100.00
37238;BME280;23129;49.662;8.448;2023-11-19T07:54:02;100418.25;;;11.75;100.00
37238;BME280;23129;49.662;8.448;2023-11-19T07:56:32;100421.75;;;11.75;100.00
37238;BME280;23129;49.662;8.448;2023-11-19T07:59:02;100423.47;;;11.76;100.00
37238;BME280;23129;49.662;8.448;2023-11-19T08:01:30;100433.78;;;11.82;100.00
37238;BME280;23129;49.662;8.448;2023-11-19T08:03:59;100441.50;;;11.88;100.00
37238;BME280;23129;49.662;8.448;2023-11-19T08:06:29;100434.31;;;11.94;100.00
37238;BME280;23129;49.662;8.448;2023-11-19T08:08:59;100438.38;;;12.02;100.00
37238;BME280;23129;49.662;8.448;2023-11-19T08:11:28;100439.84;;;12.11;100.00
37238;BME280;23129;49.662;8.448;2023-11-19T08:13:57;100429.22;;;12.14;100.00
37238;BME280;23129;49.662;8.448;2023-11-19T08:16:26;100440.44;;;12.19;100.00
37238;BME280;23129;49.662;8.448;2023-11-19T08:18:55;100429.81;;;12.22;100.00
37238;BME280;23129;49.662;8.448;2023-11-19T08:21:25;100436.69;;;12.26;100.00
37238;BME280;23129;49.662;8.448;2023-11-19T08:23:54;100439.47;;;12.47;100.00
37238;BME280;23129;49.662;8.448;2023-11-19T08:26:24;100431.88;;;12.86;100.00
37238;BME280;23129;49.662;8.448;2023-11-19T08:28:53;100427.13;;;13.19;100.00
37238;BME280;23129;49.662;8.448;2023-11-19T08:31:21;100423.69;;;13.41;100.00
37238;BME280;23129;49.662;8.448;2023-11-19T08:33:50;100425.38;;;13.64;100.00
37238;BME280;23129;49.662;8.448;2023-11-19T08:36:19;100412.19;;;13.86;100.00
37238;BME280;23129;49.662;8.448;2023-11-19T08:38:48;100406.78;;;14.09;100.00
37238;BME280;23129;49.662;8.448;2023-11-19T08:41:17;100402.22;;;14.13;100.00
37238;BME280;23129;49.662;8.448;2023-11-19T08:43:48;100408.75;;;14.04;100.00
37238;BME280;23129;49.662;8.448;2023-11-19T08:46:17;100411.13;;;14.31;100.00
37238;BME280;23129;49.662;8.448;2023-11-19T08:48:46;100419.31;;;14.45;100.00
37238;BME280;23129;49.662;8.448;2023-11-19T08:51:14;100433.63;;;14.60;100.00
37238;BME280;23129;49.662;8.448;2023-11-19T08:53:42;100436.28;;;14.79;100.00
37238;BME280;23129;49.662;8.448;2023-11-19T08:56:11;100446.75;;;14.61;100.00
37238;BME280;23129;49.662;8.448;2023-11-19T08:58:40;100447.66;;;14.40;100.00
37238;BME280;23129;49.662;8.448;2023-11-19T09:01:10;100445.69;;;14.25;100.00
37238;BME280;23129;49.662;8.448;2023-11-19T09:03:38;100432.91;;;14.15;100.00
37238;BME280;23129;49.662;8.448;2023-11-19T09:06:08;100449.03;;;14.08;100.00
37238;BME280;23129;49.662;8.448;2023-11-19T09:08:36;100437.91;;;14.01;100.00
37238;BME280;23129;49.662;8.448;2023-11-19T09:11:07;100451.34;;;13.95;100.00
37238;BME280;23129;49.662;8.448;2023-11-19T09:13:36;100443.69;;;13.89;100.00
37238;BME280;23129;49.662;8.448;2023-11-19T09:16:06;100446.47;;;13.86;100.00
37238;BME280;23129;49.662;8.448;2023-11-19T09:18:36;100456.88;;;13.89;100.00
37238;BME280;23129;49.662;8.448;2023-11-19T09:21:05;100444.38;;;13.94;100.00
37238;BME280;23129;49.662;8.448;2023-11-19T09:23:34;100447.91;;;13.93;100.00
37238;BME280;23129;49.662;8.448;2023-11-19T09:26:07;100448.03;;;13.90;100.00
37238;BME280;23129;49.662;8.448;2023-11-19T09:28:37;100439.44;;;13.85;100.00
37238;BME280;23129;49.662;8.448;2023-11-19T09:31:13;100439.69;;;13.79;100.00
37238;BME280;23129;49.662;8.448;2023-11-19T09:33:43;100441.47;;;13.78;100.00
37238;BME280;23129;49.662;8.448;2023-11-19T09:36:13;100446.09;;;13.73;100.00
37238;BME280;23129;49.662;8.448;2023-11-19T09:38:44;100452.38;;;13.70;100.00
37238;BME280;23129;49.662;8.448;2023-11-19T09:41:13;100462.91;;;13.70;100.00
37238;BME280;23129;49.662;8.448;2023-11-19T09:43:42;100463.94;;;13.66;100.00
37238;BME280;23129;49.662;8.448;2023-11-19T09:46:13;100460.44;;;13.66;100.00
37238;BME280;23129;49.662;8.448;2023-11-19T09:48:45;100468.41;;;13.64;100.00
37238;BME280;23129;49.662;8.448;2023-11-19T09:51:15;100466.69;;;13.63;100.00
37238;BME280;23129;49.662;8.448;2023-11-19T09:53:44;100456.41;;;13.57;100.00
37238;BME280;23129;49.662;8.448;2023-11-19T09:56:13;100460.19;;;13.50;100.00
37238;BME280;23129;49.662;8.448;2023-11-19T09:58:44;100453.94;;;13.31;100.00
37238;BME280;23129;49.662;8.448;2023-11-19T10:01:12;100457.19;;;13.14;100.00
37238;BME280;23129;49.662;8.448;2023-11-19T10:03:47;100467.38;;;12.99;100.00
37238;BME280;23129;49.662;8.448;2023-11-19T10:06:18;100458.88;;;12.93;100.00
37238;BME280;23129;49.662;8.448;2023-11-19T10:08:48;100459.84;;;12.90;100.00
37238;BME280;23129;49.662;8.448;2023-11-19T10:11:17;100448.44;;;12.90;100.00
37238;BME280;23129;49.662;8.448;2023-11-19T10:13:47;100438.78;;;12.90;100.00
37238;BME280;23129;49.662;8.448;2023-11-19T10:16:17;100439.50;;;12.94;100.00
37238;BME280;23129;49.662;8.448;2023-11-19T10:18:48;100444.63;;;12.98;100.00
37238;BME280;23129;49.662;8.448;2023-11-19T10:21:18;100439.03;;;13.06;100.00
37238;BME280;23129;49.662;8.448;2023-11-19T10:23:49;100430.00;;;13.13;100.00
37238;BME280;23129;49.662;8.448;2023-11-19T10:26:20;100434.84;;;13.26;100.00
37238;BME280;23129;49.662;8.448;2023-11-19T10:28:49;100437.03;;;13.58;100.00
37238;BME280;23129;49.662;8.448;2023-11-19T10:31:19;100426.63;;;14.18;100.00
37238;BME280;23129;49.662;8.448;2023-11-19T10:33:53;100421.28;;;14.40;100.00
37238;BME280;23129;49.662;8.448;2023-11-19T10:36:22;100412.94;;;14.70;100.00
37238;BME280;23129;49.662;8.448;2023-11-19T10:38:53;100414.00;;;15.22;100.00
37238;BME280;23129;49.662;8.448;2023-11-19T10:41:28;100414.38;;;15.70;100.00
37238;BME280;23129;49.662;8.448;2023-11-19T10:43:58;100414.22;;;16.25;100.00
37238;BME280;23129;49.662;8.448;2023-11-19T10:46:37;100397.75;;;16.86;100.00
37238;BME280;23129;49.662;8.448;2023-11-19T10:49:09;100407.09;;;17.41;100.00
37238;BME280;23129;49.662;8.448;2023-11-19T10:51:41;100404.25;;;17.90;100.00
37238;BME280;23129;49.662;8.448;2023-11-19T10:54:17;100389.25;;;18.19;100.00
37238;BME280;23129;49.662;8.448;2023-11-19T10:56:56;100405.84;;;18.52;100.00
37238;BME280;23129;49.662;8.448;2023-11-19T10:59:29;100401.97;;;18.71;100.00
37238;BME280;23129;49.662;8.448;2023-11-19T11:02:05;100407.69;;;18.80;100.00
37238;BME280;23129;49.662;8.448;2023-11-19T11:04:40;100403.66;;;18.30;100.00
37238;BME280;23129;49.662;8.448;2023-11-19T11:07:10;100397.06;;;17.76;100.00
37238;BME280;23129;49.662;8.448;2023-11-19T11:09:40;100403.31;;;17.29;100.00
37238;BME280;23129;49.662;8.448;2023-11-19T11:12:10;100398.44;;;17.06;100.00
37238;BME280;23129;49.662;8.448;2023-11-19T11:14:40;100398.00;;;16.98;100.00
37238;BME280;23129;49.662;8.448;2023-11-19T11:17:12;100394.50;;;16.81;100.00
37238;BME280;23129;49.662;8.448;2023-11-19T11:19:44;100390.59;;;16.71;100.00
37238;BME280;23129;49.662;8.448;2023-11-19T11:22:14;100397.47;;;16.75;100.00
37238;BME280;23129;49.662;8.448;2023-11-19T11:25:16;100402.94;;;16.72;100.00
37238;BME280;23129;49.662;8.448;2023-11-19T11:28:14;100384.75;;;16.49;100.00
37238;BME280;23129;49.662;8.448;2023-11-19T11:31:01;100395.69;;;16.42;100.00
37238;BME280;23129;49.662;8.448;2023-11-19T11:33:48;100404.09;;;16.33;100.00
37238;BME280;23129;49.662;8.448;2023-11-19T11:36:31;100398.69;;;16.52;100.00
37238;BME280;23129;49.662;8.448;2023-11-19T11:39:03;100394.09;;;16.72;100.00
37238;BME280;23129;49.662;8.448;2023-11-19T11:41:35;100390.28;;;16.77;100.00
37238;BME280;23129;49.662;8.448;2023-11-19T11:44:04;100389.81;;;16.69;100.00
37238;BME280;23129;49.662;8.448;2023-11-19T11:46:55;100389.56;;;16.58;100.00
37238;BME280;23129;49.662;8.448;2023-11-19T11:49:28;100393.94;;;16.41;100.00
37238;BME280;23129;49.662;8.448;2023-11-19T11:52:03;100392.44;;;16.20;100.00
37238;BME280;23129;49.662;8.448;2023-11-19T11:54:33;100399.16;;;16.10;100.00
37238;BME280;23129;49.662;8.448;2023-11-19T11:57:07;100398.06;;;15.96;100.00
37238;BME280;23129;49.662;8.448;2023-11-19T11:59:48;100394.56;;;16.13;100.00
37238;BME280;23129;49.662;8.448;2023-11-19T12:02:18;100403.06;;;16.69;100.00
37238;BME280;23129;49.662;8.448;2023-11-19T12:04:50;100388.13;;;17.17;100.00
37238;BME280;23129;49.662;8.448;2023-11-19T12:07:22;100386.69;;;17.57;100.00
37238;BME280;23129;49.662;8.448;2023-11-19T12:10:06;100381.63;;;17.99;100.00
37238;BME280;23129;49.662;8.448;2023-11-19T12:12:36;100398.94;;;18.35;100.00
37238;BME280;23129;49.662;8.448;2023-11-19T12:15:08;100377.03;;;18.60;100.00
37238;BME280;23129;49.662;8.448;2023-11-19T12:17:42;100370.88;;;18.74;100.00
37238;BME280;23129;49.662;8.448;2023-11-19T12:20:17;100362.97;;;18.86;100.00
37238;BME280;23129;49.662;8.448;2023-11-19T12:23:05;100358.34;;;18.61;100.00
37238;BME280;23129;49.662;8.448;2023-11-19T12:25:35;100353.97;;;18.17;100.00
37238;BME280;23129;49.662;8.448;2023-11-19T12:28:03;100351.06;;;17.77;100.00
37238;BME280;23129;49.662;8.448;2023-11-19T12:30:33;100348.56;;;17.44;100.00
37238;BME280;23129;49.662;8.448;2023-11-19T12:33:08;100362.28;;;17.21;100.00
37238;BME280;23129;49.662;8.448;2023-11-19T12:35:39;100350.31;;;16.98;100.00
37238;BME280;23129;49.662;8.448;2023-11-19T12:38:19;100349.78;;;17.07;100.00
37238;BME280;23129;49.662;8.448;2023-11-19T12:41:01;100338.63;;;17.48;100.00
37238;BME280;23129;49.662;8.448;2023-11-19T12:43:30;100346.72;;;17.91;100.00
37238;BME280;23129;49.662;8.448;2023-11-19T12:45:59;100329.13;;;18.18;100.00
37238;BME280;23129;49.662;8.448;2023-11-19T12:48:30;100328.94;;;18.50;100.00
37238;BME280;23129;49.662;8.448;2023-11-19T12:50:59;100330.84;;;18.77;100.00
37238;BME280;23129;49.662;8.448;2023-11-19T12:53:47;100323.03;;;18.88;100.00
37238;BME280;23129;49.662;8.448;2023-11-19T12:56:17;100331.72;;;19.04;100.00
37238;BME280;23129;49.662;8.448;2023-11-19T12:58:46;100316.75;;;19.16;100.00
37238;BME280;23129;49.662;8.448;2023-11-19T13:01:17;100314.91;;;19.31;100.00